This is the latest recevied weather packets stored in our database for station/object N1IJV-10. If no packets are shown the sender has not sent any weather packets the latest 1 day(s).
| Time | Temp. | Humidity | Pressure | Rain* | Wind** | Luminosity | Snow |
|---|---|---|---|---|---|---|---|
| 1778017810 | 12.78° C | 44% | 1008.6 hPa | 0 mm | 0.45 m/s, 76° | 126 W/m² | - |
| 1778017508 | 12.78° C | 44% | 1008.3 hPa | 0 mm | 0.45 m/s, 105° | 115 W/m² | - |
| 1778017204 | 12.78° C | 46% | 1008.5 hPa | 0 mm | 0.45 m/s, 79° | 104 W/m² | - |
| 1778016903 | 12.78° C | 47% | 1008.4 hPa | 0 mm | 0.89 m/s, 277° | 110 W/m² | - |
| 1778016598 | 12.78° C | 40% | 1008.3 hPa | 0 mm | 1.34 m/s, 267° | 113 W/m² | - |
| 1778016295 | 13.33° C | 45% | 1008.3 hPa | 0 mm | 0.45 m/s, 315° | 136 W/m² | - |
| 1778015992 | 13.33° C | 42% | 1008.6 hPa | 0 mm | 0.89 m/s, 310° | 194 W/m² | - |
| 1778015689 | 12.78° C | 40% | 1008.4 hPa | 0 mm | 0.45 m/s, 167° | 240 W/m² | - |
| 1778015385 | 12.78° C | 42% | 1008.5 hPa | 0 mm | 0.89 m/s, 71° | 159 W/m² | - |
| 1778015083 | 12.78° C | 42% | 1008.4 hPa | 0 mm | 0.45 m/s, 132° | 161 W/m² | - |
| 1778014779 | 12.78° C | 40% | 1008.3 hPa | 0 mm | 1.34 m/s, 275° | 183 W/m² | - |
| 1778014478 | 12.78° C | 42% | 1008.4 hPa | 0 mm | 1.34 m/s, 254° | 140 W/m² | - |
| 1778014174 | 12.78° C | 44% | 1008.4 hPa | 0 mm | 0.89 m/s, 78° | 157 W/m² | - |
| 1778013872 | 12.78° C | 45% | 1008.4 hPa | 0 mm | 1.34 m/s, 293° | 149 W/m² | - |
| 1778013569 | 12.78° C | 42% | 1008.5 hPa | 0 mm | 0.89 m/s, 258° | 176 W/m² | - |
| 1778013266 | 12.78° C | 40% | 1008.7 hPa | 0 mm | 1.79 m/s, 261° | 164 W/m² | - |
| 1778012962 | 12.78° C | 42% | 1008.5 hPa | 0 mm | 1.34 m/s, 77° | 144 W/m² | - |
| 1778012658 | 12.78° C | 39% | 1008.4 hPa | 0 mm | 2.24 m/s, 3° | 130 W/m² | - |
| 1778012355 | 12.78° C | 42% | 1008.7 hPa | 0 mm | 0.89 m/s, 233° | 126 W/m² | - |
| 1778012052 | 12.78° C | 42% | 1008.6 hPa | 0 mm | 0.89 m/s, 157° | 124 W/m² | - |
| 1778011750 | 12.78° C | 41% | 1008.6 hPa | 0 mm | 0.89 m/s, 307° | 119 W/m² | - |
| 1778011447 | 12.78° C | 44% | 1008.7 hPa | 0 mm | 1.34 m/s, 40° | 125 W/m² | - |
| 1778011142 | 12.78° C | 42% | 1008.8 hPa | 0 mm | 1.34 m/s, 228° | 138 W/m² | - |
| 1778010840 | 13.33° C | 46% | 1008.6 hPa | 0 mm | 0.45 m/s, 78° | 137 W/m² | - |
| 1778010537 | 12.78° C | 43% | 1008.8 hPa | 0 mm | 0.45 m/s, 85° | 136 W/m² | - |
* Rain latest hour (hover to see other rain measurements)
** Current wind speed in m/s (hover to see current wind gust speed)